createdAt,value
2018-12-12T00:00:42.159Z,53.25
2018-12-12T00:01:42.138Z,52.94
2018-12-12T00:02:42.127Z,53.65
2018-12-12T00:03:42.148Z,53.05
2018-12-12T00:04:42.104Z,52.55
2018-12-12T00:05:42.096Z,52.94
2018-12-12T00:06:42.080Z,52.74
2018-12-12T00:07:42.069Z,52.94
2018-12-12T00:08:42.086Z,53.65
2018-12-12T00:09:42.110Z,52.74
2018-12-12T00:10:42.035Z,53.05
2018-12-12T00:11:42.028Z,52.64
2018-12-12T00:12:42.036Z,52.55
2018-12-12T00:13:42.026Z,53.05
2018-12-12T00:14:41.987Z,52.55
2018-12-12T00:15:41.977Z,53.25
2018-12-12T00:16:41.991Z,53.25
2018-12-12T00:17:41.958Z,52.94
2018-12-12T00:18:41.942Z,53.05
2018-12-12T00:19:41.957Z,52.55
2018-12-12T00:20:41.923Z,53.14
2018-12-12T00:21:41.932Z,53.25
2018-12-12T00:22:41.899Z,52.55
2018-12-12T00:23:41.886Z,52.74
2018-12-12T00:24:41.898Z,52.55
2018-12-12T00:25:41.904Z,52.94
2018-12-12T00:26:41.849Z,52.94
2018-12-12T00:27:41.837Z,53.65
2018-12-12T00:28:41.850Z,52.94
2018-12-12T00:29:41.817Z,53.05
2018-12-12T00:30:41.802Z,53.25
2018-12-12T00:31:41.817Z,53.05
2018-12-12T00:32:41.780Z,53.05
2018-12-12T00:33:41.767Z,53.25
2018-12-12T00:34:41.759Z,53.05
2018-12-12T00:35:41.749Z,53.25
2018-12-12T00:36:41.757Z,53.05
2018-12-12T00:37:41.722Z,53.25
2018-12-12T00:38:41.710Z,53.25
2018-12-12T00:39:41.723Z,52.94
2018-12-12T00:40:41.687Z,53.14
2018-12-12T00:41:41.693Z,53.05
2018-12-12T00:42:41.663Z,53.14
2018-12-12T00:43:41.655Z,53.05
2018-12-12T00:44:41.666Z,53.25
2018-12-12T00:45:41.630Z,53.14
2018-12-12T00:46:41.616Z,53.25
2018-12-12T00:47:41.607Z,53.25
2018-12-12T00:48:41.617Z,53.05
2018-12-12T00:49:41.580Z,53.07
2018-12-12T00:50:41.569Z,53.25
2018-12-12T00:51:41.583Z,53.05
2018-12-12T00:52:41.547Z,52.55
2018-12-12T00:53:41.534Z,53.25
2018-12-12T00:54:41.523Z,53.05
2018-12-12T00:55:41.510Z,52.94
2018-12-12T00:56:41.527Z,53.14
2018-12-12T00:57:41.494Z,53.25
2018-12-12T00:58:41.475Z,52.94
2018-12-12T00:59:41.488Z,52.94
2018-12-12T01:00:41.454Z,53.05
2018-12-12T01:01:41.440Z,53.05
2018-12-12T01:02:41.428Z,53.14
2018-12-12T01:03:41.445Z,52.74
2018-12-12T01:04:41.406Z,53.14
2018-12-12T01:05:41.393Z,53.05
2018-12-12T01:06:41.410Z,53.25
2018-12-12T01:07:41.370Z,52.74
2018-12-12T01:08:41.386Z,53.25
2018-12-12T01:09:41.351Z,53.14
2018-12-12T01:10:41.334Z,53.05
2018-12-12T01:11:41.323Z,52.94
2018-12-12T01:12:41.311Z,53.14
2018-12-12T01:13:41.325Z,52.74
2018-12-12T01:14:41.290Z,53.14
2018-12-12T01:15:41.304Z,53.25
2018-12-12T01:16:41.264Z,53.25
2018-12-12T01:17:41.253Z,52.94
2018-12-12T01:18:41.241Z,52.94
2018-12-12T01:19:41.230Z,53.05
2018-12-12T01:20:41.246Z,53.05
2018-12-12T01:21:41.209Z,53.05
2018-12-12T01:22:41.195Z,53.05
2018-12-12T01:23:41.213Z,53.05
2018-12-12T01:24:41.172Z,52.84
2018-12-12T01:25:41.227Z,52.74
2018-12-12T01:26:41.151Z,52.64
2018-12-12T01:27:41.161Z,52.55
2018-12-12T01:28:41.128Z,53.14
2018-12-12T01:29:41.115Z,53.05
2018-12-12T01:30:41.101Z,53.25
2018-12-12T01:31:41.093Z,53.05
2018-12-12T01:32:41.109Z,53.05
2018-12-12T01:33:41.093Z,53.05
2018-12-12T01:34:41.055Z,52.55
2018-12-12T01:35:41.044Z,52.94
2018-12-12T01:36:46.237Z,52.94
2018-12-12T01:37:41.024Z,53.05
2018-12-12T01:38:41.012Z,52.94
2018-12-12T01:39:41.007Z,52.94
2018-12-12T01:40:40.988Z,52.55
2018-12-12T01:41:41.000Z,52.64
2018-12-12T01:42:40.965Z,53.05
2018-12-12T01:43:40.954Z,53.25
2018-12-12T01:44:40.942Z,53.14
2018-12-12T01:45:40.929Z,53.25
2018-12-12T01:46:40.943Z,53.05
2018-12-12T01:47:40.907Z,52.94
2018-12-12T01:48:40.896Z,53.34
2018-12-12T01:49:40.886Z,53.05
2018-12-12T01:50:40.888Z,53.05
2018-12-12T01:51:40.884Z,53.14
2018-12-12T01:52:40.849Z,52.55
2018-12-12T01:53:40.836Z,52.94
2018-12-12T01:54:40.851Z,52.94
2018-12-12T01:55:40.816Z,52.84
2018-12-12T01:56:40.801Z,53.25
2018-12-12T01:57:40.828Z,52.74
2018-12-12T01:58:40.781Z,53.25
2018-12-12T01:59:40.770Z,52.74
2018-12-12T02:00:40.756Z,53.25
2018-12-12T02:01:40.744Z,53.05
2018-12-12T02:02:40.760Z,52.94
2018-12-12T02:03:40.723Z,52.84
2018-12-12T02:04:40.738Z,53.25
2018-12-12T02:05:40.700Z,52.94
2018-12-12T02:06:40.684Z,52.94
2018-12-12T02:07:40.700Z,52.94
2018-12-12T02:08:40.661Z,53.34
2018-12-12T02:09:40.652Z,53.05
2018-12-12T02:10:40.638Z,53.05
2018-12-12T02:11:40.630Z,52.64
2018-12-12T02:12:40.638Z,52.94
2018-12-12T02:13:40.606Z,53.05
2018-12-12T02:14:40.593Z,52.55
2018-12-12T02:15:40.580Z,52.74
2018-12-12T02:16:40.597Z,53.25
2018-12-12T02:17:40.556Z,53.25
2018-12-12T02:18:40.548Z,53.25
2018-12-12T02:19:40.535Z,53.05
2018-12-12T02:20:40.548Z,52.94
2018-12-12T02:21:40.512Z,52.94
2018-12-12T02:22:40.499Z,52.94
2018-12-12T02:23:40.512Z,52.55
2018-12-12T02:24:40.476Z,52.94
2018-12-12T02:25:40.463Z,52.74
2018-12-12T02:26:40.453Z,53.05
2018-12-12T02:27:40.470Z,53.05
2018-12-12T02:28:40.428Z,53.05
2018-12-12T02:29:40.448Z,52.94
2018-12-12T02:30:40.406Z,52.94
2018-12-12T02:31:40.419Z,53.14
2018-12-12T02:32:40.383Z,53.05
2018-12-12T02:33:40.371Z,53.05
2018-12-12T02:34:40.398Z,53.05
2018-12-12T02:35:40.348Z,52.94
2018-12-12T02:36:40.339Z,53.25
2018-12-12T02:37:40.325Z,53.05
2018-12-12T02:38:40.311Z,52.74
2018-12-12T02:39:40.327Z,53.14
2018-12-12T02:40:40.314Z,53.05
2018-12-12T02:41:40.279Z,52.94
2018-12-12T02:42:40.295Z,53.25
2018-12-12T02:43:40.254Z,52.84
2018-12-12T02:44:40.241Z,52.94
2018-12-12T02:45:40.259Z,53.14
2018-12-12T02:46:40.218Z,53.05
2018-12-12T02:47:40.237Z,52.84
2018-12-12T02:48:40.204Z,53.05
2018-12-12T02:49:40.195Z,53.05
2018-12-12T02:50:40.171Z,52.55
2018-12-12T02:51:40.163Z,53.25
2018-12-12T02:52:40.173Z,53.05
2018-12-12T02:53:40.167Z,53.34
2018-12-12T02:54:40.124Z,53.05
2018-12-12T02:55:40.118Z,53.05
2018-12-12T02:56:40.105Z,53.05
2018-12-12T02:57:40.090Z,52.94
2018-12-12T02:58:40.104Z,53.05
2018-12-12T02:59:40.071Z,53.05
2018-12-12T03:00:40.055Z,53.05
2018-12-12T03:01:40.043Z,53.25
2018-12-12T03:02:40.033Z,53.05
2018-12-12T03:03:40.038Z,53.05
2018-12-12T03:04:40.038Z,53.05
2018-12-12T03:05:39.998Z,53.05
2018-12-12T03:06:39.991Z,53.14
2018-12-12T03:07:39.976Z,52.94
2018-12-12T03:08:39.962Z,53.05
2018-12-12T03:09:39.983Z,53.05
2018-12-12T03:10:39.939Z,52.94
2018-12-12T03:11:39.928Z,53.05
2018-12-12T03:12:39.920Z,52.94
2018-12-12T03:13:39.903Z,53.25
2018-12-12T03:14:39.928Z,52.94
2018-12-12T03:15:39.880Z,53.14
2018-12-12T03:16:39.870Z,52.94
2018-12-12T03:17:39.858Z,53.25
2018-12-12T03:18:39.847Z,53.14
2018-12-12T03:19:39.862Z,52.94
2018-12-12T03:20:39.821Z,53.05
2018-12-12T03:21:39.809Z,52.84
2018-12-12T03:22:39.828Z,53.25
2018-12-12T03:23:39.787Z,53.05
2018-12-12T03:24:39.776Z,53.05
2018-12-12T03:25:39.765Z,52.64
2018-12-12T03:26:39.794Z,53.05
2018-12-12T03:27:39.766Z,53.05
2018-12-12T03:28:39.731Z,52.84
2018-12-12T03:29:39.717Z,53.25
2018-12-12T03:30:39.726Z,53.25
2018-12-12T03:31:39.711Z,53.34
2018-12-12T03:32:39.726Z,53.05
2018-12-12T03:33:39.671Z,53.05
2018-12-12T03:34:39.661Z,52.44
2018-12-12T03:35:39.648Z,52.44
2018-12-12T03:36:39.637Z,53.05
2018-12-12T03:37:39.649Z,53.05
2018-12-12T03:38:39.614Z,52.84
2018-12-12T03:39:39.606Z,52.74
2018-12-12T03:40:39.618Z,52.94
2018-12-12T03:41:39.579Z,53.05
2018-12-12T03:42:39.568Z,52.44
2018-12-12T03:43:39.555Z,52.74
2018-12-12T03:44:39.568Z,53.05
2018-12-12T03:45:39.534Z,53.14
2018-12-12T03:46:39.521Z,52.34
2018-12-12T03:47:39.512Z,53.05
2018-12-12T03:48:39.496Z,53.14
2018-12-12T03:49:39.504Z,52.84
2018-12-12T03:50:39.477Z,53.05
2018-12-12T03:51:39.465Z,53.05
2018-12-12T03:52:39.482Z,53.34
2018-12-12T03:53:39.440Z,52.55
2018-12-12T03:54:39.428Z,52.55
2018-12-12T03:55:39.417Z,52.84
2018-12-12T03:56:39.405Z,52.74
2018-12-12T03:57:39.419Z,52.74
2018-12-12T03:58:39.379Z,52.74
2018-12-12T03:59:39.369Z,53.05
2018-12-12T04:00:39.359Z,52.94
2018-12-12T04:01:39.371Z,52.64
2018-12-12T04:02:39.334Z,52.55
2018-12-12T04:03:39.323Z,52.55
2018-12-12T04:04:39.310Z,52.84
2018-12-12T04:05:39.303Z,53.05
2018-12-12T04:06:39.317Z,52.74
2018-12-12T04:07:39.278Z,52.64
2018-12-12T04:08:39.265Z,52.55
2018-12-12T04:09:39.254Z,52.74
2018-12-12T04:10:39.243Z,52.72
2018-12-12T04:11:39.253Z,52.64
2018-12-12T04:12:39.220Z,52.74
2018-12-12T04:13:39.205Z,52.74
2018-12-12T04:14:39.199Z,53.34
2018-12-12T04:15:39.184Z,52.74
2018-12-12T04:16:39.199Z,52.74
2018-12-12T04:17:39.160Z,52.64
2018-12-12T04:18:39.175Z,52.55
2018-12-12T04:19:39.134Z,52.74
2018-12-12T04:20:39.125Z,52.64
2018-12-12T04:21:39.115Z,52.55
2018-12-12T04:22:39.126Z,52.74
2018-12-12T04:23:39.088Z,52.64
2018-12-12T04:24:39.076Z,52.64
2018-12-12T04:25:39.067Z,52.84
2018-12-12T04:26:39.057Z,51.94
2018-12-12T04:27:39.065Z,51.54
2018-12-12T04:28:39.055Z,52.74
2018-12-12T04:29:39.020Z,52.74
2018-12-12T04:30:39.031Z,52.64
2018-12-12T04:31:39.020Z,52.74
2018-12-12T04:32:38.989Z,52.55
2018-12-12T04:33:38.971Z,52.74
2018-12-12T04:34:38.959Z,52.55
2018-12-12T04:35:38.955Z,52.64
2018-12-12T04:36:38.974Z,52.64
2018-12-12T04:37:38.925Z,52.44
2018-12-12T04:38:38.914Z,51.84
2018-12-12T04:39:38.903Z,52.74
2018-12-12T04:40:38.890Z,52.64
2018-12-12T04:41:38.913Z,52.55
2018-12-12T04:42:38.867Z,52.55
2018-12-12T04:43:38.855Z,52.55
2018-12-12T04:44:38.846Z,51.64
2018-12-12T04:45:38.834Z,51.44
2018-12-12T04:46:38.847Z,51.64
2018-12-12T04:47:38.807Z,51.84
2018-12-12T04:48:38.798Z,52.64
2018-12-12T04:49:38.786Z,52.55
2018-12-12T04:50:38.774Z,52.74
2018-12-12T04:51:38.786Z,52.24
2018-12-12T04:52:38.769Z,52.55
2018-12-12T04:53:38.783Z,51.64
2018-12-12T04:54:38.727Z,51.74
2018-12-12T04:55:38.717Z,51.64
2018-12-12T04:56:38.707Z,51.64
2018-12-12T04:57:38.691Z,51.84
2018-12-12T04:58:38.720Z,51.84
2018-12-12T04:59:38.668Z,52.44
2018-12-12T05:00:38.656Z,52.14
2018-12-12T05:01:38.647Z,51.84
2018-12-12T05:02:38.633Z,51.84
2018-12-12T05:03:38.647Z,51.74
2018-12-12T05:04:38.612Z,51.74
2018-12-12T05:05:38.599Z,51.74
2018-12-12T05:06:38.614Z,51.64
2018-12-12T05:07:38.576Z,51.84
2018-12-12T05:08:38.564Z,51.74
2018-12-12T05:09:38.553Z,52.44
2018-12-12T05:10:38.571Z,52.24
2018-12-12T05:11:38.553Z,51.84
2018-12-12T05:12:38.520Z,52.24
2018-12-12T05:13:38.508Z,51.64
2018-12-12T05:14:38.495Z,52.44
2018-12-12T05:15:38.510Z,51.64
2018-12-12T05:16:38.500Z,52.94
2018-12-12T05:17:38.461Z,51.64
2018-12-12T05:18:38.474Z,51.84
2018-12-12T05:19:38.439Z,51.54
2018-12-12T05:20:38.425Z,51.84
2018-12-12T05:21:38.418Z,51.84
2018-12-12T05:22:38.438Z,51.64
2018-12-12T05:23:38.390Z,51.64
2018-12-12T05:24:38.379Z,51.64
2018-12-12T05:25:38.369Z,51.64
2018-12-12T05:26:38.355Z,52.24
2018-12-12T05:27:38.369Z,51.64
2018-12-12T05:28:38.336Z,51.64
2018-12-12T05:29:38.329Z,51.54
2018-12-12T05:30:38.309Z,51.64
2018-12-12T05:31:38.298Z,51.94
2018-12-12T05:32:38.309Z,51.84
2018-12-12T05:33:38.273Z,51.64
2018-12-12T05:34:38.268Z,51.74
2018-12-12T05:35:38.277Z,51.84
2018-12-12T05:36:38.240Z,51.84
2018-12-12T05:37:38.228Z,52.55
2018-12-12T05:38:38.218Z,51.84
2018-12-12T05:39:38.204Z,51.84
2018-12-12T05:40:38.225Z,51.74
2018-12-12T05:41:38.179Z,51.74
2018-12-12T05:42:38.168Z,51.64
2018-12-12T05:43:38.155Z,51.64
2018-12-12T05:44:38.144Z,51.64
2018-12-12T05:45:38.156Z,51.84
2018-12-12T05:46:41.848Z,51.84
2018-12-12T05:47:38.111Z,51.74
2018-12-12T05:48:38.127Z,51.84
2018-12-12T05:49:38.090Z,51.84
2018-12-12T05:50:38.076Z,52.44
2018-12-12T05:51:38.065Z,51.84
2018-12-12T05:52:38.056Z,51.84
2018-12-12T05:53:38.067Z,51.84
2018-12-12T05:54:38.030Z,51.84
2018-12-12T05:55:38.018Z,51.84
2018-12-12T05:56:38.006Z,51.44
2018-12-12T05:57:37.999Z,51.84
2018-12-12T05:58:38.014Z,51.74
2018-12-12T05:59:37.987Z,51.64
2018-12-12T06:00:37.963Z,51.72
2018-12-12T06:01:38.011Z,51.64
2018-12-12T06:02:38.043Z,51.74
2018-12-12T06:03:37.953Z,51.84
2018-12-12T06:04:37.914Z,51.84
2018-12-12T06:05:37.946Z,51.74
2018-12-12T06:06:37.895Z,51.84
2018-12-12T06:07:37.900Z,51.64
2018-12-12T06:08:37.867Z,51.64
2018-12-12T06:09:37.856Z,51.74
2018-12-12T06:10:37.872Z,51.84
2018-12-12T06:11:38.892Z,51.84
2018-12-12T06:12:37.845Z,51.64
2018-12-12T06:13:37.809Z,51.64
2018-12-12T06:14:37.800Z,51.84
2018-12-12T06:15:37.785Z,51.94
2018-12-12T06:16:37.801Z,52.32
2018-12-12T06:17:37.763Z,51.64
2018-12-12T06:18:37.750Z,51.84
2018-12-12T06:19:37.764Z,51.84
2018-12-12T06:20:37.728Z,51.84
2018-12-12T06:21:37.716Z,51.94
2018-12-12T06:22:38.083Z,52.04
2018-12-12T06:23:37.692Z,52.04
2018-12-12T06:24:37.707Z,52.24
2018-12-12T06:25:37.673Z,51.84
2018-12-12T06:26:37.764Z,52.04
2018-12-12T06:27:37.646Z,52.34
2018-12-12T06:28:37.635Z,51.74
2018-12-12T06:29:37.650Z,51.94
2018-12-12T06:30:37.610Z,51.84
2018-12-12T06:31:37.634Z,51.64
2018-12-12T06:32:37.596Z,51.94
2018-12-12T06:33:37.576Z,52.44
2018-12-12T06:34:37.566Z,52.04
2018-12-12T06:35:37.552Z,51.74
2018-12-12T06:36:37.687Z,51.64
2018-12-12T06:37:37.536Z,51.64
2018-12-12T06:38:37.518Z,51.84
2018-12-12T06:39:37.504Z,51.84
2018-12-12T06:40:37.494Z,51.94
2018-12-12T06:41:37.527Z,51.74
2018-12-12T06:42:37.471Z,51.84
2018-12-12T06:43:37.461Z,51.64
2018-12-12T06:44:37.447Z,51.74
2018-12-12T06:45:37.436Z,51.81
2018-12-12T06:46:37.457Z,51.84
2018-12-12T06:47:37.412Z,51.84
2018-12-12T06:48:37.412Z,51.84
2018-12-12T06:49:37.391Z,51.84
2018-12-12T06:50:37.379Z,51.64
2018-12-12T06:51:37.391Z,52.14
2018-12-12T06:52:37.363Z,51.44
2018-12-12T06:53:37.379Z,51.04
2018-12-12T06:54:37.331Z,50.63
2018-12-12T06:55:37.321Z,50.73
2018-12-12T06:56:37.309Z,50.23
2018-12-12T06:57:37.298Z,49.73
2018-12-12T06:58:37.310Z,49.83
2018-12-12T06:59:37.285Z,50.13
2018-12-12T07:00:37.260Z,48.93
2018-12-12T07:01:37.251Z,48.43
2018-12-12T07:02:37.236Z,48.83
2018-12-12T07:03:37.254Z,48.75
2018-12-12T07:04:37.216Z,48.22
2018-12-12T07:05:37.203Z,47.82
2018-12-12T07:06:37.195Z,46.81
2018-12-12T07:07:37.219Z,45.94
2018-12-12T07:08:37.192Z,45.61
2018-12-12T07:09:37.156Z,44.53
2018-12-12T07:10:37.168Z,44.31
2018-12-12T07:11:37.133Z,43.30
2018-12-12T07:12:37.122Z,43.20
2018-12-12T07:13:37.115Z,42.40
2018-12-12T07:14:37.096Z,41.79
2018-12-12T07:15:37.114Z,41.39
2018-12-12T07:16:37.095Z,41.39
2018-12-12T07:17:37.064Z,40.59
2018-12-12T07:18:37.086Z,41.59
2018-12-12T07:19:37.039Z,41.79
2018-12-12T07:20:37.055Z,41.69
2018-12-12T07:21:37.042Z,42.30
2018-12-12T07:22:37.036Z,42.80
2018-12-12T07:23:36.991Z,42.90
2018-12-12T07:24:36.980Z,43.10
2018-12-12T07:25:36.970Z,43.10
2018-12-12T07:26:36.976Z,42.80
2018-12-12T07:27:36.948Z,43.78
2018-12-12T07:28:36.991Z,43.38
2018-12-12T07:29:36.946Z,43.38
2018-12-12T07:30:36.911Z,43.58
2018-12-12T07:31:36.926Z,43.88
2018-12-12T07:32:36.891Z,43.58
2018-12-12T07:33:36.879Z,44.08
2018-12-12T07:34:36.865Z,43.48
2018-12-12T07:35:36.853Z,43.68
2018-12-12T07:36:36.865Z,43.18
2018-12-12T07:37:36.830Z,44.38
2018-12-12T07:38:36.816Z,43.88
2018-12-12T07:39:36.804Z,44.16
2018-12-12T07:40:36.796Z,44.16
2018-12-12T07:41:36.827Z,44.26
2018-12-12T07:42:36.773Z,43.58
2018-12-12T07:43:36.763Z,44.16
2018-12-12T07:44:36.750Z,44.26
2018-12-12T07:45:36.754Z,44.16
2018-12-12T07:46:36.752Z,44.26
2018-12-12T07:47:36.718Z,43.86
2018-12-12T07:48:36.701Z,44.16
2018-12-12T07:49:36.729Z,43.94
2018-12-12T07:50:36.678Z,44.14
2018-12-12T07:51:36.669Z,43.84
2018-12-12T07:52:36.683Z,43.74
2018-12-12T07:53:36.644Z,43.54
2018-12-12T07:54:36.635Z,43.64
2018-12-12T07:55:36.619Z,43.94
2018-12-12T07:56:36.635Z,43.74
2018-12-12T07:57:36.597Z,44.34
2018-12-12T07:58:36.610Z,44.44
2018-12-12T07:59:36.572Z,44.44
2018-12-12T08:00:36.580Z,44.54
2018-12-12T08:01:36.551Z,44.24
2018-12-12T08:02:36.539Z,44.34
2018-12-12T08:03:36.552Z,44.14
2018-12-12T08:04:36.517Z,44.24
2018-12-12T08:05:36.529Z,44.44
2018-12-12T08:06:36.493Z,44.24
2018-12-12T08:07:36.481Z,44.64
2018-12-12T08:27:26.410Z,77.55
2018-12-12T08:28:26.376Z,80.91
2018-12-12T08:29:26.369Z,82.27
2018-12-12T08:30:26.359Z,84.64
2018-12-12T08:31:26.367Z,85.82
2018-12-12T08:32:26.335Z,87.70
2018-12-12T08:33:26.321Z,88.51
2018-12-12T08:34:26.319Z,89.56
2018-12-12T08:35:26.311Z,89.72
2018-12-12T08:36:26.318Z,89.83
2018-12-12T08:37:26.297Z,89.62
2018-12-12T08:38:26.294Z,90.50
2018-12-12T08:39:26.278Z,90.91
2018-12-12T08:40:26.247Z,91.75
2018-12-12T08:41:26.246Z,91.85
2018-12-12T08:42:26.235Z,91.64
2018-12-12T08:43:26.245Z,91.12
2018-12-12T08:44:26.231Z,91.64
2018-12-12T08:45:26.192Z,91.85
2018-12-12T08:46:26.184Z,91.96
2018-12-12T08:47:26.196Z,90.70
2018-12-12T08:48:26.190Z,91.54
2018-12-12T08:49:26.154Z,91.85
2018-12-12T08:50:26.168Z,91.54
2018-12-12T08:51:26.200Z,92.00
2018-12-12T08:52:26.131Z,91.43
2018-12-12T08:53:26.129Z,91.96
2018-12-12T08:54:26.093Z,91.85
2018-12-12T08:55:26.106Z,91.85
2018-12-12T08:56:26.094Z,91.96
2018-12-12T08:57:26.060Z,91.96
2018-12-12T08:58:26.048Z,91.64
2018-12-12T08:59:26.037Z,92.16
2018-12-12T09:00:26.055Z,91.64
2018-12-12T09:01:26.022Z,92.16
2018-12-12T09:02:26.028Z,92.37
2018-12-12T09:03:25.994Z,92.16
2018-12-12T09:04:25.981Z,92.37
2018-12-12T09:05:25.969Z,92.06
2018-12-12T09:06:25.960Z,92.16
2018-12-12T09:07:25.977Z,92.90
2018-12-12T09:08:25.946Z,92.52
2018-12-12T09:09:25.941Z,92.79
2018-12-12T09:10:25.942Z,92.69
2018-12-12T09:11:25.904Z,92.69
2018-12-12T09:12:25.926Z,92.90
2018-12-12T09:13:25.890Z,92.27
2018-12-12T09:14:25.873Z,92.90
2018-12-12T09:15:25.883Z,92.69
2018-12-12T09:16:25.852Z,92.47
2018-12-12T09:17:25.862Z,92.16
2018-12-12T09:18:25.834Z,92.06
2018-12-12T09:19:25.819Z,92.06
2018-12-12T09:20:25.808Z,92.16
2018-12-12T09:21:25.795Z,91.60
2018-12-12T09:22:25.809Z,91.81
2018-12-12T09:23:25.808Z,90.87
2018-12-12T09:24:25.771Z,90.35
2018-12-12T09:25:25.792Z,90.35
2018-12-12T09:26:25.750Z,90.25
2018-12-12T09:27:25.730Z,89.58
2018-12-12T09:28:25.748Z,90.31
2018-12-12T09:29:25.709Z,89.68
2018-12-12T09:30:25.699Z,88.64
2018-12-12T09:31:25.687Z,89.16
2018-12-12T09:32:25.675Z,88.60
2018-12-12T09:33:26.323Z,85.36
2018-12-12T09:34:25.658Z,81.72
2018-12-12T09:35:26.815Z,82.65
2018-12-12T09:36:25.638Z,82.31
2018-12-12T09:37:25.633Z,78.24
2018-12-12T09:38:25.636Z,79.35
2018-12-12T09:39:25.645Z,81.43
2018-12-12T09:40:25.590Z,79.35
2018-12-12T09:41:25.593Z,79.11
2018-12-12T09:42:25.577Z,77.44
2018-12-12T09:43:26.120Z,77.86
2018-12-12T09:44:25.638Z,78.49
2018-12-12T09:45:26.623Z,77.96
2018-12-12T09:46:26.126Z,78.34
2018-12-12T09:47:25.523Z,78.07
2018-12-12T09:48:25.513Z,77.30
2018-12-12T09:49:25.495Z,75.54
2018-12-12T09:50:25.518Z,76.57
2018-12-12T09:51:25.476Z,77.89
2018-12-12T09:52:25.465Z,79.14
2018-12-12T09:53:25.460Z,76.23
2018-12-12T09:54:25.496Z,78.03
2018-12-12T09:55:25.452Z,79.38
2018-12-12T09:56:25.420Z,80.63
2018-12-12T09:57:25.436Z,79.35
2018-12-12T09:58:25.407Z,80.63
2018-12-12T09:59:25.394Z,81.05
2018-12-12T10:00:25.381Z,81.05
2018-12-12T10:01:25.402Z,80.98
2018-12-12T10:02:25.353Z,80.98
2018-12-12T10:03:30.999Z,81.71
2018-12-12T10:04:26.335Z,82.23
2018-12-12T10:05:25.333Z,82.96
2018-12-12T10:06:25.339Z,82.92
2018-12-12T10:07:25.329Z,82.92
2018-12-12T10:08:25.305Z,83.54
2018-12-12T10:09:25.281Z,82.46
2018-12-12T10:10:25.296Z,81.95
2018-12-12T10:11:25.264Z,82.05
2018-12-12T10:12:25.250Z,81.95
2018-12-12T10:13:25.241Z,82.46
2018-12-12T10:14:25.225Z,81.67
2018-12-12T10:15:25.249Z,81.57
2018-12-12T10:16:25.225Z,82.30
2018-12-12T10:17:25.195Z,83.44
2018-12-12T10:18:25.186Z,83.80
2018-12-12T10:19:25.176Z,83.48
2018-12-12T10:20:25.187Z,83.06
2018-12-12T10:21:25.160Z,83.37
2018-12-12T10:22:25.145Z,82.75
2018-12-12T10:23:25.141Z,82.23
2018-12-12T10:24:25.122Z,82.54
2018-12-12T10:25:25.136Z,82.13
2018-12-12T10:26:25.137Z,82.44
2018-12-12T10:27:25.117Z,82.54
2018-12-12T10:28:25.076Z,82.34
2018-12-12T10:29:25.143Z,83.27
2018-12-12T10:30:25.061Z,83.37
2018-12-12T10:31:25.052Z,83.48
2018-12-12T10:32:25.036Z,84.00
2018-12-12T10:33:25.047Z,84.00
2018-12-12T10:34:25.039Z,84.38
2018-12-12T10:35:24.999Z,83.44
2018-12-12T10:36:24.989Z,83.86
2018-12-12T10:37:24.977Z,83.54
2018-12-12T10:38:24.989Z,82.40
2018-12-12T10:39:24.971Z,83.13
2018-12-12T10:40:24.948Z,83.13
2018-12-12T10:41:24.979Z,81.46
2018-12-12T10:42:24.925Z,81.57
2018-12-12T10:43:24.917Z,80.94
2018-12-12T10:44:24.921Z,81.26
2018-12-12T10:45:24.896Z,80.01
2018-12-12T10:46:24.908Z,78.34
2018-12-12T10:47:24.899Z,79.76
2018-12-12T10:48:24.861Z,80.70
2018-12-12T10:49:24.884Z,79.03
2018-12-12T10:50:24.837Z,77.89
2018-12-12T10:51:24.862Z,78.93
2018-12-12T10:52:24.861Z,77.48
2018-12-12T10:53:24.821Z,78.72
2018-12-12T10:54:24.817Z,74.15
2018-12-12T10:55:24.860Z,72.93
2018-12-12T10:56:24.781Z,73.83
2018-12-12T10:57:24.773Z,73.52
2018-12-12T10:58:24.767Z,73.94
2018-12-12T10:59:24.784Z,73.83
2018-12-12T11:00:24.850Z,73.94
2018-12-12T11:01:24.754Z,73.42
2018-12-12T11:02:24.723Z,72.17
2018-12-12T11:03:24.715Z,71.97
2018-12-12T11:04:24.724Z,73.00
2018-12-12T11:05:24.699Z,72.38
2018-12-12T11:06:24.674Z,72.28
2018-12-12T11:07:24.675Z,72.80
2018-12-12T11:08:24.708Z,72.80
2018-12-12T11:09:24.659Z,72.28
2018-12-12T11:10:24.651Z,73.63
2018-12-12T11:11:24.695Z,74.01
2018-12-12T11:12:24.619Z,73.42
2018-12-12T11:13:25.739Z,73.94
2018-12-12T11:14:24.619Z,74.77
2018-12-12T11:15:24.591Z,75.40
2018-12-12T11:16:24.901Z,75.22
2018-12-12T11:17:24.553Z,72.86
2018-12-12T11:18:24.563Z,74.11
2018-12-12T11:19:24.529Z,69.43
2018-12-12T11:20:24.516Z,69.33
2018-12-12T11:21:24.513Z,69.43
2018-12-12T11:22:24.518Z,70.27
2018-12-12T11:23:24.485Z,71.41
2018-12-12T11:24:24.514Z,72.24
2018-12-12T11:25:24.463Z,71.41
2018-12-12T11:26:24.454Z,71.83
2018-12-12T11:27:24.732Z,70.40
2018-12-12T11:28:24.434Z,71.31
2018-12-12T11:29:24.423Z,73.00
2018-12-12T11:30:24.415Z,72.90
2018-12-12T11:31:24.406Z,71.93
2018-12-12T11:32:24.415Z,72.03
2018-12-12T11:33:24.419Z,71.75
2018-12-12T11:34:24.366Z,69.96
2018-12-12T11:35:24.358Z,71.41
2018-12-12T11:36:24.374Z,69.85
2018-12-12T11:37:24.340Z,70.48
2018-12-12T11:38:24.401Z,72.24
2018-12-12T11:39:24.316Z,69.92
2018-12-12T11:40:24.303Z,69.71
2018-12-12T11:41:24.323Z,69.92
2018-12-12T11:42:24.286Z,69.61
2018-12-12T11:43:24.274Z,69.82
2018-12-12T11:44:24.286Z,68.13
2018-12-12T11:45:24.251Z,68.96
2018-12-12T11:46:24.284Z,67.19
2018-12-12T11:47:24.240Z,68.13
2018-12-12T11:48:24.222Z,68.33
2018-12-12T11:49:24.212Z,67.92
2018-12-12T11:50:24.199Z,68.72
2018-12-12T11:51:24.306Z,68.62
2018-12-12T11:52:24.184Z,69.24
2018-12-12T11:53:24.170Z,69.24
2018-12-12T11:54:24.162Z,69.31
2018-12-12T11:55:24.153Z,69.21
2018-12-12T11:56:24.167Z,69.24
2018-12-12T11:57:24.128Z,69.76
2018-12-12T11:58:24.118Z,69.45
2018-12-12T11:59:24.110Z,70.00
2018-12-12T12:00:24.129Z,70.41
2018-12-12T12:01:24.087Z,69.55
2018-12-12T12:02:24.099Z,69.79
2018-12-12T12:03:24.065Z,70.10
2018-12-12T12:04:24.084Z,69.48
2018-12-12T12:05:24.071Z,69.89
2018-12-12T12:06:24.046Z,70.41
2018-12-12T12:07:24.038Z,71.14
2018-12-12T12:08:24.046Z,70.41
2018-12-12T12:09:24.011Z,70.20
2018-12-12T12:10:23.996Z,70.00
2018-12-12T12:11:24.030Z,70.51
2018-12-12T12:12:23.983Z,70.00
2018-12-12T12:13:23.961Z,71.97
2018-12-12T12:14:23.975Z,71.97
2018-12-12T12:15:23.940Z,70.38
2018-12-12T12:16:23.932Z,69.79
2018-12-12T12:17:23.952Z,69.37
2018-12-12T12:18:23.914Z,69.06
2018-12-12T12:19:23.913Z,69.27
2018-12-12T12:20:23.919Z,69.86
2018-12-12T12:21:23.918Z,70.38
2018-12-12T12:22:23.917Z,68.20
2018-12-12T12:23:23.877Z,69.24
2018-12-12T12:24:24.407Z,67.68
2018-12-12T12:25:23.862Z,66.85
2018-12-12T12:26:23.827Z,69.73
2018-12-12T12:27:23.823Z,67.24
2018-12-12T12:28:23.809Z,67.44
2018-12-12T12:29:23.865Z,66.17
2018-12-12T12:30:23.806Z,67.24
2018-12-12T12:31:23.799Z,67.51
2018-12-12T12:32:23.764Z,66.78
2018-12-12T12:33:23.750Z,65.65
2018-12-12T12:34:23.748Z,65.96
2018-12-12T12:35:23.790Z,65.65
2018-12-12T12:36:23.745Z,66.41
2018-12-12T12:37:23.713Z,66.06
2018-12-12T12:38:23.719Z,66.09
2018-12-12T12:39:23.690Z,66.99
2018-12-12T12:40:23.713Z,67.03
2018-12-12T12:41:23.672Z,65.99
2018-12-12T12:42:23.661Z,67.89
2018-12-12T12:43:23.666Z,67.37
2018-12-12T12:44:23.640Z,67.58
2018-12-12T12:45:23.677Z,67.79
2018-12-12T12:46:23.621Z,67.89
2018-12-12T12:47:23.613Z,68.02
2018-12-12T12:48:23.624Z,68.99
2018-12-12T12:49:23.600Z,69.30
2018-12-12T12:50:23.581Z,69.71
2018-12-12T12:51:23.607Z,69.71
2018-12-12T12:52:23.564Z,69.40
2018-12-12T12:53:23.547Z,69.92
2018-12-12T12:54:23.561Z,69.30
2018-12-12T12:55:23.543Z,69.85
2018-12-12T12:56:23.542Z,69.40
2018-12-12T12:57:23.550Z,69.85
2018-12-12T12:58:23.511Z,69.33
2018-12-12T12:59:23.522Z,69.74
2018-12-12T13:00:23.480Z,70.17
2018-12-12T13:01:23.463Z,70.79
2018-12-12T13:02:23.478Z,70.23
2018-12-12T13:03:23.446Z,70.34
2018-12-12T13:04:23.435Z,70.03
2018-12-12T13:05:23.428Z,70.03
2018-12-12T13:06:23.442Z,70.34
2018-12-12T13:07:23.434Z,69.30
2018-12-12T13:08:23.648Z,69.58
2018-12-12T13:09:23.403Z,69.27
2018-12-12T13:10:23.371Z,69.58
2018-12-12T13:11:23.395Z,69.24